createdAt,value
2023-01-17T00:02:05.786Z,36.65
2023-01-17T00:04:52.415Z,38.50
2023-01-17T00:07:39.151Z,38.08
2023-01-17T00:10:16.991Z,33.20
2023-01-17T00:13:01.092Z,40.45
2023-01-17T00:15:30.726Z,40.35
2023-01-17T00:17:58.231Z,35.45
2023-01-17T00:20:46.255Z,37.83
2023-01-17T00:23:38.046Z,33.88
2023-01-17T00:26:19.091Z,36.05
2023-01-17T00:28:47.789Z,33.85
2023-01-17T00:31:16.211Z,30.52
2023-01-17T00:33:43.345Z,39.55
2023-01-17T00:36:11.271Z,31.37
2023-01-17T00:38:39.439Z,29.65
2023-01-17T00:41:09.193Z,34.75
2023-01-17T00:43:55.051Z,33.38
2023-01-17T00:46:41.021Z,34.40
2023-01-17T00:49:27.789Z,29.58
2023-01-17T00:52:13.703Z,32.40
2023-01-17T00:54:59.606Z,32.45
2023-01-17T00:57:45.263Z,29.67
2023-01-17T01:00:31.759Z,27.73
2023-01-17T01:03:17.289Z,28.40
2023-01-17T01:06:03.339Z,31.52
2023-01-17T01:08:49.274Z,29.52
2023-01-17T01:11:38.061Z,29.17
2023-01-17T01:14:26.005Z,27.60
2023-01-17T01:17:11.779Z,35.95
2023-01-17T01:19:57.271Z,27.05
2023-01-17T01:22:43.073Z,26.65
2023-01-17T01:25:28.720Z,30.08
2023-01-17T01:28:29.326Z,28.10
2023-01-17T01:31:15.026Z,28.62
2023-01-17T01:33:42.458Z,29.05
2023-01-17T01:36:09.995Z,26.08
2023-01-17T01:38:37.124Z,28.05
2023-01-17T01:41:05.221Z,28.48
2023-01-17T01:43:48.531Z,25.15
2023-01-17T01:46:23.751Z,24.15
2023-01-17T01:49:05.900Z,24.77
2023-01-17T01:51:36.728Z,23.55
2023-01-17T01:54:25.645Z,28.80
2023-01-17T01:56:53.412Z,25.35
2023-01-17T01:59:21.249Z,26.12
2023-01-17T02:01:50.616Z,25.83
2023-01-17T02:04:19.305Z,23.83
2023-01-17T02:06:49.368Z,27.77
2023-01-17T02:09:18.120Z,26.40
2023-01-17T02:11:47.144Z,30.02
2023-01-17T02:14:22.226Z,25.90
2023-01-17T02:17:06.593Z,25.40
2023-01-17T02:19:52.213Z,28.15
2023-01-17T02:22:44.414Z,29.50
2023-01-17T02:25:43.627Z,30.15
2023-01-17T02:28:29.525Z,30.10
2023-01-17T02:31:02.905Z,28.23
2023-01-17T02:33:41.811Z,28.05
2023-01-17T02:36:17.963Z,28.08
2023-01-17T02:38:59.733Z,31.98
2023-01-17T02:41:34.289Z,30.75
2023-01-17T02:44:02.458Z,32.38
2023-01-17T02:46:29.609Z,29.87
2023-01-17T02:48:57.854Z,27.37
2023-01-17T02:51:58.635Z,25.58
2023-01-17T02:54:39.599Z,22.25
2023-01-17T02:57:06.907Z,29.00
2023-01-17T02:59:50.524Z,22.13
2023-01-17T03:02:23.855Z,28.45
2023-01-17T03:05:14.503Z,25.60
2023-01-17T03:07:44.335Z,25.37
2023-01-17T03:10:12.861Z,22.17
2023-01-17T03:12:40.644Z,22.42
2023-01-17T03:15:12.995Z,25.17
2023-01-17T03:17:46.972Z,23.55
2023-01-17T03:20:14.474Z,23.20
2023-01-17T03:22:41.625Z,24.12
2023-01-17T03:25:09.154Z,21.83
2023-01-17T03:27:36.560Z,23.98
2023-01-17T03:30:04.619Z,22.17
2023-01-17T03:32:31.675Z,20.17
2023-01-17T03:34:59.046Z,18.27
2023-01-17T03:37:26.116Z,14.95
2023-01-17T03:39:53.322Z,15.35
2023-01-17T03:42:20.664Z,19.08
2023-01-17T03:44:47.837Z,15.82
2023-01-17T03:47:14.932Z,14.52
2023-01-17T03:49:42.288Z,14.63
2023-01-17T03:52:09.406Z,10.57
2023-01-17T03:54:36.559Z,12.32
2023-01-17T03:57:04.052Z,11.23
2023-01-17T03:59:33.266Z,12.20
2023-01-17T04:02:01.188Z,16.00
2023-01-17T04:04:28.746Z,13.27
2023-01-17T04:06:55.891Z,12.48
2023-01-17T04:09:23.008Z,12.95
2023-01-17T04:11:51.018Z,11.12
2023-01-17T04:14:18.166Z,10.38
2023-01-17T04:16:45.311Z,11.40
2023-01-17T04:19:13.305Z,12.05
2023-01-17T04:21:40.415Z,13.52
2023-01-17T04:24:07.782Z,13.35
2023-01-17T04:26:35.215Z,11.55
2023-01-17T04:29:02.413Z,13.10
2023-01-17T04:31:29.576Z,12.60
2023-01-17T04:33:57.090Z,11.32
2023-01-17T04:36:24.241Z,11.98
2023-01-17T04:38:51.415Z,15.73
2023-01-17T04:41:18.897Z,17.00
2023-01-17T04:43:46.008Z,16.58
2023-01-17T04:46:13.283Z,15.75
2023-01-17T04:48:40.667Z,9.00
2023-01-17T04:51:07.755Z,8.90
2023-01-17T04:53:34.911Z,9.35
2023-01-17T04:56:03.061Z,7.70
2023-01-17T04:58:30.521Z,8.90
2023-01-17T05:01:02.308Z,9.40
2023-01-17T05:03:29.871Z,7.47
2023-01-17T05:05:56.945Z,10.07
2023-01-17T05:08:24.105Z,8.75
2023-01-17T05:10:51.638Z,8.38
2023-01-17T05:13:19.026Z,7.03
2023-01-17T05:15:46.554Z,7.65
2023-01-17T05:18:15.402Z,9.80
2023-01-17T05:20:42.878Z,6.55
2023-01-17T05:23:10.680Z,6.82
2023-01-17T05:25:38.166Z,5.70
2023-01-17T05:28:05.582Z,6.90
2023-01-17T05:30:33.204Z,7.70
2023-01-17T05:33:00.689Z,15.85
2023-01-17T05:35:30.073Z,7.97
2023-01-17T05:37:57.225Z,5.70
2023-01-17T05:40:30.771Z,7.45
2023-01-17T05:42:59.650Z,5.80
2023-01-17T05:45:28.943Z,6.28
2023-01-17T05:47:56.862Z,5.78
2023-01-17T05:50:26.500Z,7.80
2023-01-17T05:53:03.847Z,5.78
2023-01-17T05:55:31.712Z,5.75
2023-01-17T05:57:59.684Z,5.90
2023-01-17T06:00:27.096Z,7.37
2023-01-17T06:02:55.894Z,4.95
2023-01-17T06:05:23.875Z,8.38
2023-01-17T06:07:51.077Z,3.42
2023-01-17T06:10:20.031Z,7.82
2023-01-17T06:12:47.634Z,5.07
2023-01-17T06:15:16.022Z,3.45
2023-01-17T06:17:43.431Z,5.62
2023-01-17T06:20:11.749Z,5.75
2023-01-17T06:22:38.883Z,5.75
2023-01-17T06:25:07.014Z,7.53
2023-01-17T06:27:34.219Z,7.22
2023-01-17T06:30:01.315Z,11.75
2023-01-17T06:32:28.907Z,7.37
2023-01-17T06:34:56.068Z,10.80
2023-01-17T06:37:23.166Z,10.80
2023-01-17T06:39:50.539Z,10.60
2023-01-17T06:42:17.609Z,6.05
2023-01-17T06:44:44.682Z,6.82
2023-01-17T06:47:12.045Z,9.50
2023-01-17T06:49:39.107Z,8.68
2023-01-17T06:52:06.199Z,5.03
2023-01-17T06:54:33.545Z,7.55
2023-01-17T06:57:00.764Z,6.75
2023-01-17T06:59:27.962Z,9.20
2023-01-17T07:01:55.339Z,8.98
2023-01-17T07:04:22.499Z,4.53
2023-01-17T07:06:49.650Z,6.28
2023-01-17T07:09:17.232Z,6.32
2023-01-17T07:11:45.406Z,7.62
2023-01-17T07:14:13.744Z,6.90
2023-01-17T07:16:45.312Z,6.57
2023-01-17T07:19:12.807Z,7.60
2023-01-17T07:21:40.430Z,5.32
2023-01-17T07:24:09.094Z,4.53
2023-01-17T07:26:38.013Z,6.87
2023-01-17T07:29:05.379Z,7.05
2023-01-17T07:31:38.149Z,6.15
2023-01-17T07:34:05.361Z,5.60
2023-01-17T07:36:33.403Z,8.27
2023-01-17T07:39:00.492Z,4.72
2023-01-17T07:41:27.584Z,8.40
2023-01-17T07:43:56.399Z,6.53
2023-01-17T07:46:23.723Z,4.75
2023-01-17T07:48:50.920Z,7.45
2023-01-17T07:51:18.353Z,5.78
2023-01-17T07:53:45.564Z,4.10
2023-01-17T07:56:12.704Z,9.30
2023-01-17T07:58:40.147Z,3.45
2023-01-17T08:01:10.088Z,2.75
2023-01-17T08:03:40.184Z,3.03
2023-01-17T08:06:16.455Z,3.50
2023-01-17T08:08:43.981Z,2.35
2023-01-17T08:11:11.145Z,2.55
2023-01-17T08:13:38.326Z,3.83
2023-01-17T08:16:06.352Z,2.70
2023-01-17T08:18:33.448Z,7.12
2023-01-17T08:21:00.600Z,15.73
2023-01-17T08:23:28.035Z,4.32
2023-01-17T08:26:00.018Z,4.85
2023-01-17T08:28:27.510Z,2.20
2023-01-17T08:30:54.644Z,9.10
2023-01-17T08:33:21.784Z,1.95
2023-01-17T08:35:55.504Z,2.20
2023-01-17T08:38:23.798Z,1.42
2023-01-17T08:40:51.165Z,1.17
2023-01-17T08:43:18.292Z,2.35
2023-01-17T08:45:47.075Z,1.33
2023-01-17T08:48:15.427Z,1.00
2023-01-17T08:50:42.571Z,3.53
2023-01-17T08:53:09.721Z,1.90
2023-01-17T08:55:40.905Z,1.00
2023-01-17T08:58:08.335Z,1.60
2023-01-17T09:00:35.996Z,1.62
2023-01-17T09:03:03.570Z,2.67
2023-01-17T09:05:30.754Z,3.83
2023-01-17T09:07:57.921Z,2.25
2023-01-17T09:10:25.458Z,1.20
2023-01-17T09:12:52.827Z,4.07
2023-01-17T09:15:20.287Z,3.20
2023-01-17T09:17:48.046Z,5.25
2023-01-17T09:20:15.251Z,5.70
2023-01-17T09:22:42.370Z,7.10
2023-01-17T09:25:09.985Z,2.03
2023-01-17T09:27:37.272Z,1.40
2023-01-17T09:30:04.948Z,1.33
2023-01-17T09:32:32.402Z,2.90
2023-01-17T09:35:01.013Z,2.30
2023-01-17T09:37:28.397Z,0.80
2023-01-17T09:39:55.903Z,1.25
2023-01-17T09:42:41.133Z,1.25
2023-01-17T09:45:16.867Z,2.87
2023-01-17T09:47:46.488Z,3.58
2023-01-17T09:50:36.010Z,4.25
2023-01-17T09:53:05.443Z,2.00
2023-01-17T09:55:42.965Z,4.50
2023-01-17T09:58:13.086Z,0.60
2023-01-17T10:01:19.845Z,5.05
2023-01-17T10:03:59.306Z,6.78
2023-01-17T10:06:42.468Z,6.45
2023-01-17T10:09:34.044Z,8.80
2023-01-17T10:12:07.214Z,2.87
2023-01-17T10:14:52.572Z,1.77
2023-01-17T10:17:36.419Z,1.15
2023-01-17T10:20:26.593Z,2.45
2023-01-17T10:23:13.003Z,0.70
2023-01-17T10:25:49.682Z,1.30
2023-01-17T10:28:18.049Z,1.65
2023-01-17T10:30:50.742Z,1.12
2023-01-17T10:33:22.460Z,1.12
2023-01-17T10:35:59.093Z,2.05
2023-01-17T10:38:35.082Z,0.93
2023-01-17T10:41:08.112Z,1.98
2023-01-17T10:43:44.505Z,1.35
2023-01-17T10:46:19.345Z,1.90
2023-01-17T10:48:47.822Z,1.73
2023-01-17T10:51:32.532Z,1.52
2023-01-17T10:54:28.332Z,1.12
2023-01-17T10:56:55.847Z,2.00
2023-01-17T10:59:31.953Z,1.85
2023-01-17T11:02:00.482Z,1.73
2023-01-17T11:04:38.839Z,1.10
2023-01-17T11:07:19.495Z,0.88
2023-01-17T11:09:57.570Z,4.95
2023-01-17T11:12:30.967Z,2.08
2023-01-17T11:15:05.797Z,8.43
2023-01-17T11:17:35.048Z,1.70
2023-01-17T11:20:40.733Z,3.05
2023-01-17T11:23:14.075Z,6.55
2023-01-17T11:25:49.410Z,1.00
2023-01-17T11:28:22.956Z,1.75
2023-01-17T11:31:16.618Z,1.60
2023-01-17T11:33:55.854Z,0.90
2023-01-17T11:36:24.675Z,1.15
2023-01-17T11:38:56.778Z,2.90
2023-01-17T11:41:25.026Z,6.82
2023-01-17T11:43:57.401Z,5.57
2023-01-17T11:46:25.258Z,5.12
2023-01-17T11:48:56.449Z,7.07
2023-01-17T11:51:29.568Z,19.33
2023-01-17T11:54:08.778Z,9.18
2023-01-17T11:56:36.916Z,8.23
2023-01-17T11:59:31.630Z,12.20
2023-01-17T12:02:15.685Z,26.95
2023-01-17T12:04:47.653Z,3.30
2023-01-17T12:07:33.328Z,6.82
2023-01-17T12:10:11.209Z,6.22
2023-01-17T12:13:09.998Z,5.57
2023-01-17T12:16:01.820Z,4.53
2023-01-17T12:19:04.120Z,12.43
2023-01-17T12:21:50.039Z,2.72
2023-01-17T12:24:45.513Z,7.30
2023-01-17T12:27:31.637Z,6.72
2023-01-17T12:30:24.974Z,4.20
2023-01-17T12:33:30.557Z,4.40
2023-01-17T12:36:38.179Z,5.03
2023-01-17T12:39:10.135Z,5.07
2023-01-17T12:42:01.627Z,4.47
2023-01-17T12:45:32.289Z,6.10
2023-01-17T12:48:12.323Z,4.65
2023-01-17T12:51:08.989Z,5.55
2023-01-17T12:53:48.560Z,5.18
2023-01-17T12:56:22.641Z,3.65
2023-01-17T12:58:56.277Z,5.65
2023-01-17T13:01:31.835Z,2.37
2023-01-17T13:04:28.776Z,4.60
2023-01-17T13:06:59.163Z,5.25
2023-01-17T13:09:33.215Z,6.32
2023-01-17T13:12:06.225Z,11.57
2023-01-17T13:14:33.435Z,17.42
2023-01-17T13:17:02.113Z,6.93
2023-01-17T13:19:38.091Z,13.68
2023-01-17T13:22:08.392Z,14.63
2023-01-17T13:25:12.886Z,17.12
2023-01-17T13:28:01.771Z,7.32
2023-01-17T13:30:50.875Z,7.18
2023-01-17T13:33:39.729Z,5.85
2023-01-17T13:36:30.016Z,3.47
2023-01-17T13:39:16.053Z,4.22
2023-01-17T13:41:47.702Z,7.30
2023-01-17T13:44:21.587Z,8.45
2023-01-17T13:46:56.715Z,5.37
2023-01-17T13:49:36.185Z,8.80
2023-01-17T13:52:09.577Z,9.38
2023-01-17T13:54:49.049Z,8.73
2023-01-17T13:57:25.735Z,10.38
2023-01-17T13:59:58.108Z,16.48
2023-01-17T14:02:38.528Z,7.85
2023-01-17T14:05:15.972Z,6.45
2023-01-17T14:07:49.260Z,5.95
2023-01-17T14:10:24.395Z,5.97
2023-01-17T14:12:51.549Z,5.90
2023-01-17T14:15:21.049Z,5.47
2023-01-17T14:17:58.480Z,4.55
2023-01-17T14:20:25.895Z,20.62
2023-01-17T14:22:56.158Z,7.03
2023-01-17T14:25:28.334Z,7.22
2023-01-17T14:27:59.493Z,10.93
2023-01-17T14:30:27.055Z,14.20
2023-01-17T14:33:04.688Z,12.77
2023-01-17T14:35:35.137Z,19.08
2023-01-17T14:38:05.379Z,12.05
2023-01-17T14:40:35.826Z,10.77
2023-01-17T14:43:02.931Z,7.62
2023-01-17T14:45:32.361Z,10.55
2023-01-17T14:48:01.994Z,7.28
2023-01-17T14:50:37.333Z,10.05
2023-01-17T14:53:08.383Z,9.90
2023-01-17T14:55:35.725Z,10.25
2023-01-17T14:58:03.304Z,15.07
2023-01-17T15:00:32.918Z,15.13
2023-01-17T15:03:01.439Z,17.90
2023-01-17T15:05:29.737Z,15.40
2023-01-17T15:07:58.336Z,16.08
2023-01-17T15:10:28.560Z,14.45
2023-01-17T15:12:56.824Z,15.23
2023-01-17T15:15:39.697Z,9.57
2023-01-17T15:18:27.140Z,13.38
2023-01-17T15:21:03.124Z,10.70
2023-01-17T15:23:37.541Z,14.25
2023-01-17T15:26:07.550Z,9.77
2023-01-17T15:28:35.314Z,15.20
2023-01-17T15:31:15.829Z,11.82
2023-01-17T15:33:46.850Z,13.27
2023-01-17T15:36:34.219Z,8.20
2023-01-17T15:39:06.036Z,11.50
2023-01-17T15:41:37.918Z,9.15
2023-01-17T15:44:05.691Z,12.82
2023-01-17T15:46:42.053Z,9.70
2023-01-17T15:49:21.369Z,12.45
2023-01-17T15:51:52.550Z,9.85
2023-01-17T15:54:28.679Z,7.57
2023-01-17T15:57:37.330Z,9.10
2023-01-17T16:00:20.467Z,10.20
2023-01-17T16:02:55.094Z,12.05
2023-01-17T16:05:22.912Z,8.82
2023-01-17T16:07:55.630Z,9.85
2023-01-17T16:10:25.136Z,10.65
2023-01-17T16:12:55.093Z,13.20
2023-01-17T16:15:23.621Z,11.10
2023-01-17T16:17:53.213Z,10.57
2023-01-17T16:20:35.906Z,13.02
2023-01-17T16:23:03.328Z,13.27
2023-01-17T16:25:32.751Z,10.13
2023-01-17T16:27:59.998Z,14.48
2023-01-17T16:30:28.008Z,10.25
2023-01-17T16:32:56.904Z,11.43
2023-01-17T16:35:34.329Z,38.83
2023-01-17T16:38:07.267Z,12.10
2023-01-17T16:40:43.901Z,10.98
2023-01-17T16:43:18.427Z,11.70
2023-01-17T16:45:47.926Z,8.93
2023-01-17T16:48:17.669Z,13.00
2023-01-17T16:50:50.488Z,10.00
2023-01-17T16:53:24.287Z,7.65
2023-01-17T16:55:57.191Z,6.97
2023-01-17T16:58:24.772Z,11.20
2023-01-17T17:00:52.322Z,11.65
2023-01-17T17:03:20.851Z,9.90
2023-01-17T17:05:59.986Z,10.73
2023-01-17T17:08:29.296Z,12.93
2023-01-17T17:11:07.982Z,10.00
2023-01-17T17:13:37.810Z,8.80
2023-01-17T17:16:19.127Z,7.57
2023-01-17T17:18:47.661Z,8.63
2023-01-17T17:21:15.161Z,8.40
2023-01-17T17:23:42.389Z,8.68
2023-01-17T17:26:09.825Z,9.65
2023-01-17T17:28:37.576Z,8.63
2023-01-17T17:31:11.010Z,8.90
2023-01-17T17:33:38.770Z,5.95
2023-01-17T17:36:07.717Z,9.68
2023-01-17T17:38:37.053Z,9.43
2023-01-17T17:41:09.740Z,8.05
2023-01-17T17:43:38.631Z,8.85
2023-01-17T17:46:06.504Z,9.23
2023-01-17T17:48:33.876Z,6.85
2023-01-17T17:51:01.586Z,7.62
2023-01-17T17:53:29.060Z,8.35
2023-01-17T17:55:56.348Z,8.38
2023-01-17T17:58:23.633Z,7.62
2023-01-17T18:00:51.141Z,8.30
2023-01-17T18:03:18.946Z,11.35
2023-01-17T18:05:46.840Z,9.05
2023-01-17T18:08:14.087Z,10.45
2023-01-17T18:10:42.531Z,7.35
2023-01-17T18:13:09.692Z,7.32
2023-01-17T18:15:36.830Z,8.65
2023-01-17T18:18:04.445Z,8.05
2023-01-17T18:20:31.947Z,7.30
2023-01-17T18:22:59.124Z,6.00
2023-01-17T18:25:26.555Z,5.80
2023-01-17T18:27:53.869Z,7.32
2023-01-17T18:30:21.269Z,8.43
2023-01-17T18:32:49.888Z,8.43
2023-01-17T18:35:17.212Z,7.25
2023-01-17T18:37:44.518Z,6.30
2023-01-17T18:40:12.152Z,6.68
2023-01-17T18:42:39.278Z,5.43
2023-01-17T18:45:06.896Z,7.15
2023-01-17T18:47:34.348Z,5.00
2023-01-17T18:50:01.573Z,5.57
2023-01-17T18:52:28.699Z,6.70
2023-01-17T18:54:56.124Z,6.00
2023-01-17T18:57:24.136Z,7.22
2023-01-17T18:59:51.226Z,6.30
2023-01-17T19:02:19.927Z,9.82
2023-01-17T19:04:47.099Z,7.90
2023-01-17T19:07:14.234Z,8.25
2023-01-17T19:09:41.764Z,7.82
2023-01-17T19:12:08.860Z,4.97
2023-01-17T19:14:35.930Z,6.75
2023-01-17T19:17:03.341Z,6.00
2023-01-17T19:19:30.438Z,7.00
2023-01-17T19:21:57.495Z,8.35
2023-01-17T19:24:24.843Z,6.00
2023-01-17T19:26:53.272Z,6.00
2023-01-17T19:29:20.512Z,6.53
2023-01-17T19:31:47.911Z,5.55
2023-01-17T19:34:15.973Z,7.30
2023-01-17T19:36:43.105Z,5.37
2023-01-17T19:39:10.676Z,7.20
2023-01-17T19:41:42.170Z,6.50
2023-01-17T19:44:10.273Z,6.57
2023-01-17T19:46:37.949Z,5.95
2023-01-17T19:49:07.110Z,9.25
2023-01-17T19:51:34.572Z,8.57
2023-01-17T19:54:04.044Z,9.27
2023-01-17T19:56:31.504Z,6.30
2023-01-17T19:59:01.347Z,7.35
2023-01-17T20:01:31.548Z,5.95
2023-01-17T20:03:59.721Z,5.82
2023-01-17T20:06:29.499Z,5.35
2023-01-17T20:08:56.656Z,4.43
2023-01-17T20:11:25.557Z,3.72
2023-01-17T20:13:54.819Z,4.55
2023-01-17T20:16:23.213Z,5.87
2023-01-17T20:18:51.126Z,5.45
2023-01-17T20:21:20.667Z,4.60
2023-01-17T20:23:48.976Z,6.90
2023-01-17T20:26:19.430Z,4.80
2023-01-17T20:28:47.733Z,3.72
2023-01-17T20:31:17.527Z,3.28
2023-01-17T20:33:46.899Z,4.37
2023-01-17T20:36:16.636Z,3.95
2023-01-17T20:38:44.437Z,2.42
2023-01-17T20:41:17.671Z,2.65
2023-01-17T20:43:46.684Z,3.35
2023-01-17T20:46:14.703Z,2.30
2023-01-17T20:48:46.553Z,2.35
2023-01-17T20:51:14.659Z,2.30
2023-01-17T20:53:43.508Z,1.90
2023-01-17T20:56:12.372Z,1.90
2023-01-17T20:58:40.355Z,3.15
2023-01-17T21:01:09.550Z,1.92
2023-01-17T21:03:37.630Z,3.45
2023-01-17T21:06:07.168Z,3.87
2023-01-17T21:08:36.647Z,2.47
2023-01-17T21:11:04.613Z,3.72
2023-01-17T21:13:32.055Z,1.55
2023-01-17T21:15:59.619Z,4.97
2023-01-17T21:18:28.190Z,2.22
2023-01-17T21:20:55.551Z,2.40
2023-01-17T21:23:29.033Z,1.90
2023-01-17T21:25:57.639Z,2.08
2023-01-17T21:28:26.463Z,2.08
2023-01-17T21:30:54.107Z,2.33
2023-01-17T21:33:22.724Z,0.95
2023-01-17T21:35:50.199Z,1.25
2023-01-17T21:38:17.598Z,2.53
2023-01-17T21:40:45.434Z,3.35
2023-01-17T21:43:13.006Z,2.47
2023-01-17T21:45:41.501Z,2.03
2023-01-17T21:48:13.568Z,2.00
2023-01-17T21:50:40.675Z,2.20
2023-01-17T21:53:09.990Z,1.33
2023-01-17T21:55:56.249Z,2.85
2023-01-17T21:58:42.116Z,1.40
2023-01-17T22:01:22.391Z,2.35
2023-01-17T22:03:54.912Z,1.95
2023-01-17T22:06:25.779Z,1.40
2023-01-17T22:08:53.359Z,2.80
2023-01-17T22:11:22.635Z,2.83
2023-01-17T22:13:49.775Z,2.05
2023-01-17T22:16:21.395Z,2.28
2023-01-17T22:18:48.469Z,2.17
2023-01-17T22:21:23.640Z,2.12
2023-01-17T22:23:52.970Z,3.20
2023-01-17T22:26:21.878Z,2.20
2023-01-17T22:28:48.957Z,3.55
2023-01-17T22:31:20.819Z,2.37
2023-01-17T22:33:55.337Z,2.75
2023-01-17T22:36:23.305Z,2.30
2023-01-17T22:38:50.655Z,4.50
2023-01-17T22:41:23.269Z,3.47
2023-01-17T22:43:55.595Z,2.50
2023-01-17T22:46:26.614Z,2.15
2023-01-17T22:48:55.194Z,2.85
2023-01-17T22:51:24.003Z,3.05
2023-01-17T22:53:53.238Z,4.30
2023-01-17T22:56:31.272Z,3.65
2023-01-17T22:59:00.732Z,2.80
2023-01-17T23:01:30.209Z,2.40
2023-01-17T23:03:59.547Z,3.22
2023-01-17T23:06:30.425Z,2.33
2023-01-17T23:09:03.571Z,3.72
2023-01-17T23:11:39.680Z,5.00
2023-01-17T23:14:07.191Z,5.62
2023-01-17T23:16:52.980Z,6.10
2023-01-17T23:19:23.652Z,5.50
2023-01-17T23:22:17.349Z,4.25
2023-01-17T23:24:56.806Z,5.10
2023-01-17T23:27:42.081Z,6.50
2023-01-17T23:30:13.966Z,6.35
2023-01-17T23:32:45.871Z,4.55
2023-01-17T23:35:14.269Z,5.85
2023-01-17T23:38:00.057Z,6.10
2023-01-17T23:40:28.122Z,5.43
2023-01-17T23:43:13.650Z,5.85
2023-01-17T23:45:41.102Z,6.20
2023-01-17T23:48:12.043Z,5.85
2023-01-17T23:50:41.578Z,6.20
2023-01-17T23:53:09.617Z,5.07
2023-01-17T23:55:39.914Z,8.25
2023-01-17T23:58:10.434Z,7.35
